Terminal Aerodrome Forecast
Issued by NWS Topeka, KS

Home | Current Version | Previous Version | Text Only | Print | Product List | Glossary Off
Versions: 1 2 3 4 5 6 7 8 9 10 11 12 13 14 15 16 17 18 19 20 21 22 23

000
FTUS43 KTOP 191000 AAA
TAFTOP
TAF AMD
KTOP 191006Z 1910/2006 13005KT 3SM BR BKN005
      TEMPO 1910/1914 1SM BR OVC004
     FM191700 17008KT P6SM SCT020
     FM191900 18010KT P6SM FEW025=

USA.gov is the U.S. government's official web portal to all federal, state and local government web resources and services.